Terminal Aerodrome Forecast
Issued by NWS

Home | Current Version | Previous Version | Text Only | Print | Product List | Glossary On
Versions: 1 2 3 4 5 6 7 8 9 10 11 12 13 14
000
FTUS42 KTAE 022333
TAFABY
TAF
KABY 022333Z 0300/0324 20003KT P6SM SCT040 BKN250
     FM030900 00000KT 5SM BR BKN015
     FM031500 24008KT P6SM BKN030
     FM032000 27012KT 5SM TSRA BKN035CB=

USA.gov is the U.S. government's official web portal to all federal, state and local government web resources and services.